createdAt,value
2018-06-20T00:01:54.875Z,14.60
2018-06-20T00:04:23.084Z,12.88
2018-06-20T00:06:51.287Z,12.78
2018-06-20T00:09:19.483Z,11.30
2018-06-20T00:11:47.710Z,11.25
2018-06-20T00:14:15.994Z,12.65
2018-06-20T00:16:44.265Z,12.50
2018-06-20T00:19:12.457Z,12.43
2018-06-20T00:21:40.675Z,12.55
2018-06-20T00:24:08.901Z,13.05
2018-06-20T00:26:37.108Z,13.60
2018-06-20T00:29:05.331Z,13.25
2018-06-20T00:31:33.546Z,12.85
2018-06-20T00:34:01.541Z,12.80
2018-06-20T00:36:29.750Z,14.30
2018-06-20T00:38:57.954Z,11.97
2018-06-20T00:41:26.213Z,13.30
2018-06-20T00:43:54.414Z,13.62
2018-06-20T00:46:22.663Z,13.68
2018-06-20T00:48:50.913Z,12.35
2018-06-20T00:51:19.106Z,13.80
2018-06-20T00:53:47.327Z,13.22
2018-06-20T00:56:22.475Z,14.68
2018-06-20T00:58:50.548Z,11.85
2018-06-20T01:01:19.026Z,13.70
2018-06-20T01:03:47.236Z,14.20
2018-06-20T01:06:15.474Z,13.70
2018-06-20T01:08:43.686Z,13.13
2018-06-20T01:11:12.400Z,13.62
2018-06-20T01:13:40.609Z,12.65
2018-06-20T01:16:08.815Z,13.93
2018-06-20T01:18:37.002Z,13.50
2018-06-20T01:21:05.202Z,14.58
2018-06-20T01:23:33.443Z,15.88
2018-06-20T01:26:01.649Z,15.53
2018-06-20T01:28:29.873Z,16.40
2018-06-20T01:30:58.073Z,17.32
2018-06-20T01:33:26.330Z,16.50
2018-06-20T01:35:54.525Z,14.95
2018-06-20T01:38:22.727Z,16.90
2018-06-20T01:40:50.963Z,16.25
2018-06-20T01:43:19.353Z,17.17
2018-06-20T01:45:47.618Z,16.90
2018-06-20T01:48:15.825Z,17.12
2018-06-20T01:50:44.035Z,17.30
2018-06-20T01:53:12.238Z,16.60
2018-06-20T01:55:40.488Z,17.37
2018-06-20T01:58:08.647Z,16.52
2018-06-20T02:00:36.840Z,17.98
2018-06-20T02:03:05.088Z,17.02
2018-06-20T02:05:33.287Z,18.32
2018-06-20T02:08:01.495Z,16.45
2018-06-20T02:10:29.690Z,16.23
2018-06-20T02:12:57.882Z,18.20
2018-06-20T02:15:26.082Z,18.20
2018-06-20T02:17:54.323Z,18.07
2018-06-20T02:20:22.525Z,18.30
2018-06-20T02:22:50.737Z,18.92
2018-06-20T02:25:18.952Z,19.45
2018-06-20T02:27:47.179Z,19.37
2018-06-20T02:30:15.374Z,18.42
2018-06-20T02:32:43.558Z,18.67
2018-06-20T02:35:11.751Z,17.65
2018-06-20T02:37:39.942Z,17.23
2018-06-20T02:40:08.159Z,19.00
2018-06-20T02:42:36.369Z,19.37
2018-06-20T02:45:04.578Z,19.92
2018-06-20T02:47:38.131Z,19.48
2018-06-20T02:50:06.319Z,19.42
2018-06-20T02:52:34.554Z,20.35
2018-06-20T02:55:02.716Z,20.92
2018-06-20T02:57:31.170Z,18.42
2018-06-20T02:59:59.452Z,20.45
2018-06-20T03:02:27.637Z,20.52
2018-06-20T03:04:55.818Z,20.00
2018-06-20T03:07:24.095Z,20.97
2018-06-20T03:09:52.268Z,21.82
2018-06-20T03:12:20.489Z,20.00
2018-06-20T03:14:48.704Z,20.40
2018-06-20T03:17:16.897Z,22.05
2018-06-20T03:19:45.074Z,21.65
2018-06-20T03:22:13.282Z,20.25
2018-06-20T03:24:41.470Z,21.20
2018-06-20T03:27:09.658Z,22.13
2018-06-20T03:29:37.848Z,21.17
2018-06-20T03:32:06.030Z,24.60
2018-06-20T03:34:34.210Z,22.75
2018-06-20T03:37:02.401Z,23.22
2018-06-20T03:39:30.571Z,24.35
2018-06-20T03:41:58.737Z,25.15
2018-06-20T03:44:27.008Z,23.30
2018-06-20T03:46:55.430Z,24.27
2018-06-20T03:49:23.608Z,23.98
2018-06-20T03:51:51.810Z,23.47
2018-06-20T03:54:20.001Z,23.15
2018-06-20T03:56:48.161Z,23.83
2018-06-20T03:59:16.345Z,23.22
2018-06-20T04:01:44.547Z,23.73
2018-06-20T04:04:12.710Z,24.20
2018-06-20T04:06:40.922Z,23.55
2018-06-20T04:09:11.493Z,23.38
2018-06-20T04:11:39.689Z,23.87
2018-06-20T04:14:07.882Z,23.95
2018-06-20T04:16:36.069Z,24.80
2018-06-20T04:19:04.242Z,24.80
2018-06-20T04:21:32.481Z,24.67
2018-06-20T04:24:00.669Z,26.68
2018-06-20T04:26:28.845Z,24.75
2018-06-20T04:28:57.030Z,27.07
2018-06-20T04:31:25.204Z,26.10
2018-06-20T04:33:53.690Z,21.97
2018-06-20T04:36:21.894Z,24.30
2018-06-20T04:38:50.137Z,23.50
2018-06-20T04:41:18.328Z,24.95
2018-06-20T04:43:46.529Z,24.43
2018-06-20T04:46:14.693Z,24.80
2018-06-20T04:48:42.888Z,26.07
2018-06-20T04:51:11.080Z,27.50
2018-06-20T04:53:39.258Z,27.00
2018-06-20T04:56:07.493Z,27.48
2018-06-20T04:58:35.686Z,26.82
2018-06-20T05:01:03.877Z,27.52
2018-06-20T05:03:32.101Z,27.37
2018-06-20T05:06:00.289Z,27.87
2018-06-20T05:08:28.450Z,28.50
2018-06-20T05:10:56.632Z,27.98
2018-06-20T05:13:24.801Z,25.32
2018-06-20T05:15:52.969Z,28.47
2018-06-20T05:18:21.133Z,27.00
2018-06-20T05:20:49.409Z,28.65
2018-06-20T05:23:17.576Z,28.73
2018-06-20T05:25:45.894Z,26.62
2018-06-20T05:28:14.061Z,28.90
2018-06-20T05:30:42.289Z,28.23
2018-06-20T05:33:10.458Z,28.38
2018-06-20T05:35:38.625Z,27.93
2018-06-20T05:38:06.799Z,28.30
2018-06-20T05:40:34.977Z,26.80
2018-06-20T05:43:03.143Z,27.42
2018-06-20T05:45:31.451Z,25.75
2018-06-20T05:47:59.666Z,26.52
2018-06-20T05:50:27.841Z,27.20
2018-06-20T05:52:56.064Z,26.57
2018-06-20T05:55:24.246Z,26.50
2018-06-20T05:57:52.513Z,25.70
2018-06-20T06:00:20.814Z,24.77
2018-06-20T06:02:49.061Z,25.32
2018-06-20T06:05:17.313Z,24.82
2018-06-20T06:07:45.515Z,25.37
2018-06-20T06:10:15.599Z,26.00
2018-06-20T06:12:44.062Z,26.70
2018-06-20T06:15:12.237Z,26.35
2018-06-20T06:17:40.674Z,25.02
2018-06-20T06:20:09.518Z,25.80
2018-06-20T06:22:37.689Z,22.98
2018-06-20T06:25:05.882Z,20.35
2018-06-20T06:27:34.077Z,23.70
2018-06-20T06:30:02.437Z,24.12
2018-06-20T06:32:30.662Z,23.55
2018-06-20T06:34:58.896Z,21.70
2018-06-20T06:37:27.067Z,22.48
2018-06-20T06:39:55.264Z,21.33
2018-06-20T06:42:23.473Z,20.08
2018-06-20T06:44:52.014Z,20.57
2018-06-20T06:47:20.282Z,19.12
2018-06-20T06:49:48.482Z,20.75
2018-06-20T06:52:16.641Z,19.85
2018-06-20T06:54:44.806Z,18.05
2018-06-20T06:57:13.070Z,18.37
2018-06-20T06:59:41.335Z,19.82
2018-06-20T07:02:09.506Z,18.35
2018-06-20T07:04:37.791Z,18.82
2018-06-20T07:07:06.022Z,17.55
2018-06-20T07:09:34.245Z,17.92
2018-06-20T07:12:02.461Z,17.25
2018-06-20T07:14:30.739Z,17.05
2018-06-20T07:16:58.921Z,17.32
2018-06-20T07:19:27.091Z,17.15
2018-06-20T07:21:55.254Z,17.55
2018-06-20T07:24:23.488Z,15.70
2018-06-20T07:26:51.605Z,16.40
2018-06-20T07:29:19.780Z,17.85
2018-06-20T07:31:47.930Z,15.75
2018-06-20T07:34:16.344Z,16.25
2018-06-20T07:36:44.285Z,16.85
2018-06-20T07:39:12.453Z,17.05
2018-06-20T07:41:40.617Z,18.82
2018-06-20T07:44:08.838Z,18.27
2018-06-20T07:46:37.009Z,17.45
2018-06-20T07:49:05.249Z,17.48
2018-06-20T07:51:33.438Z,17.27
2018-06-20T07:54:01.626Z,18.57
2018-06-20T07:56:29.797Z,17.80
2018-06-20T07:58:58.464Z,19.17
2018-06-20T08:01:43.681Z,20.23
2018-06-20T08:04:17.369Z,21.40
2018-06-20T08:06:50.945Z,17.50
2018-06-20T08:09:24.405Z,19.17
2018-06-20T08:11:58.057Z,18.67
2018-06-20T08:14:31.721Z,21.50
2018-06-20T08:17:05.551Z,16.80
2018-06-20T08:19:39.281Z,23.38
2018-06-20T08:22:07.465Z,21.42
2018-06-20T08:24:36.524Z,20.82
2018-06-20T08:27:04.753Z,20.68
2018-06-20T08:29:32.940Z,32.10
2018-06-20T08:32:01.164Z,21.93
2018-06-20T08:34:29.329Z,20.65
2018-06-20T08:36:57.528Z,19.05
2018-06-20T08:39:25.725Z,18.57
2018-06-20T08:41:53.918Z,18.17
2018-06-20T08:44:22.169Z,17.48
2018-06-20T08:46:50.410Z,18.02
2018-06-20T08:49:18.588Z,16.50
2018-06-20T08:51:46.845Z,16.55
2018-06-20T08:54:15.000Z,15.32
2018-06-20T08:56:43.181Z,14.07
2018-06-20T08:59:11.342Z,18.00
2018-06-20T09:01:39.662Z,17.87
2018-06-20T09:04:13.116Z,19.10
2018-06-20T09:06:46.726Z,18.95
2018-06-20T09:09:20.438Z,18.82
2018-06-20T09:11:53.830Z,16.50
2018-06-20T09:14:22.084Z,15.80
2018-06-20T09:16:55.771Z,16.07
2018-06-20T09:19:29.473Z,14.33
2018-06-20T09:21:57.704Z,14.00
2018-06-20T09:24:26.137Z,13.00
2018-06-20T09:26:54.313Z,13.43
2018-06-20T09:29:22.476Z,12.68
2018-06-20T09:31:50.649Z,13.65
2018-06-20T09:34:18.805Z,12.73
2018-06-20T09:36:47.001Z,13.08
2018-06-20T09:39:15.182Z,13.95
2018-06-20T09:41:43.348Z,13.28
2018-06-20T09:44:11.519Z,14.78
2018-06-20T09:46:39.685Z,14.85
2018-06-20T09:49:07.894Z,15.28
2018-06-20T09:51:36.073Z,14.93
2018-06-20T09:54:04.246Z,15.45
2018-06-20T09:56:32.420Z,14.13
2018-06-20T09:59:06.027Z,15.15
2018-06-20T10:01:39.836Z,14.47
2018-06-20T10:04:13.349Z,14.33
2018-06-20T10:06:46.821Z,14.35
2018-06-20T10:09:20.349Z,13.65
2018-06-20T10:11:54.102Z,13.53
2018-06-20T10:14:22.321Z,15.03
2018-06-20T10:16:50.476Z,14.13
2018-06-20T10:19:18.653Z,14.43
2018-06-20T10:21:46.893Z,14.23
2018-06-20T10:24:15.149Z,13.58
2018-06-20T10:26:43.361Z,14.03
2018-06-20T10:29:11.577Z,12.78
2018-06-20T10:31:39.777Z,12.80
2018-06-20T10:34:07.972Z,13.55
2018-06-20T10:36:36.136Z,13.72
2018-06-20T10:39:06.937Z,13.70
2018-06-20T10:41:37.044Z,12.50
2018-06-20T10:44:11.734Z,13.10
2018-06-20T10:46:46.075Z,13.18
2018-06-20T10:49:15.439Z,13.75
2018-06-20T10:51:44.190Z,13.00
2018-06-20T10:54:12.333Z,13.18
2018-06-20T10:56:45.847Z,14.28
2018-06-20T10:59:19.532Z,13.40
2018-06-20T11:01:53.250Z,14.28
2018-06-20T11:04:26.849Z,13.95
2018-06-20T11:07:00.562Z,14.35
2018-06-20T11:09:34.229Z,13.18
2018-06-20T11:12:07.707Z,13.45
2018-06-20T11:14:41.365Z,14.38
2018-06-20T11:17:09.526Z,14.58
2018-06-20T11:19:37.680Z,13.48
2018-06-20T11:22:05.894Z,13.60
2018-06-20T11:24:34.079Z,12.65
2018-06-20T11:27:02.229Z,13.05
2018-06-20T11:29:30.402Z,12.85
2018-06-20T11:31:58.607Z,13.70
2018-06-20T11:34:26.773Z,11.63
2018-06-20T11:36:55.045Z,12.25
2018-06-20T11:39:23.264Z,11.25
2018-06-20T11:41:51.155Z,10.35
2018-06-20T11:44:19.330Z,10.50
2018-06-20T11:46:52.871Z,11.40
2018-06-20T11:49:20.817Z,10.08
2018-06-20T11:51:49.117Z,10.55
2018-06-20T11:54:17.470Z,9.70
2018-06-20T11:56:45.681Z,10.03
2018-06-20T11:59:19.289Z,9.98
2018-06-20T12:01:53.067Z,8.65
2018-06-20T12:04:26.426Z,8.73
2018-06-20T12:07:00.115Z,7.78
2018-06-20T12:09:33.674Z,7.67
2018-06-20T12:12:07.341Z,7.85
2018-06-20T12:14:40.889Z,6.90
2018-06-20T12:17:08.317Z,7.67
2018-06-20T12:19:41.819Z,7.12
2018-06-20T12:22:15.537Z,6.42
2018-06-20T12:24:49.122Z,6.85
2018-06-20T12:27:22.794Z,6.60
2018-06-20T12:29:56.190Z,6.92
2018-06-20T12:32:29.872Z,6.72
2018-06-20T12:35:03.565Z,6.72
2018-06-20T12:37:37.073Z,6.62
2018-06-20T12:40:09.533Z,6.22
2018-06-20T12:42:43.006Z,6.55
2018-06-20T12:45:13.751Z,5.87
2018-06-20T12:47:48.070Z,5.70
2018-06-20T12:50:22.053Z,5.35
2018-06-20T12:52:50.403Z,4.72
2018-06-20T12:55:18.602Z,5.22
2018-06-20T12:57:46.777Z,5.15
2018-06-20T13:00:15.254Z,5.05
2018-06-20T13:02:43.749Z,4.85
2018-06-20T13:05:12.005Z,5.00
2018-06-20T13:07:40.198Z,5.40
2018-06-20T13:10:08.413Z,4.65
2018-06-20T13:12:36.881Z,4.10
2018-06-20T13:15:05.125Z,4.35
2018-06-20T13:17:33.921Z,4.37
2018-06-20T13:20:02.207Z,4.53
2018-06-20T13:22:30.509Z,3.83
2018-06-20T13:24:59.017Z,4.83
2018-06-20T13:27:33.994Z,4.67
2018-06-20T13:30:07.546Z,4.12
2018-06-20T13:32:41.357Z,3.55
2018-06-20T13:35:15.449Z,3.92
2018-06-20T13:37:49.165Z,3.72
2018-06-20T13:40:22.754Z,3.98
2018-06-20T13:42:56.454Z,4.12
2018-06-20T13:45:30.118Z,3.77
2018-06-20T13:48:03.817Z,4.53
2018-06-20T13:50:32.126Z,3.95
2018-06-20T13:53:00.302Z,3.37
2018-06-20T13:55:28.456Z,3.60
2018-06-20T13:57:56.695Z,3.40
2018-06-20T14:00:24.933Z,3.37
2018-06-20T14:02:53.097Z,3.80
2018-06-20T14:05:21.286Z,3.25
2018-06-20T14:07:49.461Z,3.33
2018-06-20T14:10:17.751Z,3.42
2018-06-20T14:12:45.918Z,3.42
2018-06-20T14:15:14.125Z,3.52
2018-06-20T14:17:42.144Z,3.00
2018-06-20T14:20:15.966Z,2.95
2018-06-20T14:22:44.128Z,2.80
2018-06-20T14:25:12.339Z,2.58
2018-06-20T14:27:40.509Z,3.10
2018-06-20T14:30:08.823Z,3.08
2018-06-20T14:32:42.466Z,3.10
2018-06-20T14:35:15.985Z,3.67
2018-06-20T14:37:49.495Z,2.60
2018-06-20T14:41:25.678Z,2.75
2018-06-20T14:43:59.317Z,2.50
2018-06-20T14:46:29.290Z,3.00
2018-06-20T14:48:57.454Z,3.08
2018-06-20T14:51:25.388Z,2.70
2018-06-20T14:53:53.721Z,2.80
2018-06-20T14:56:21.922Z,2.55
2018-06-20T14:58:50.104Z,2.83
2018-06-20T15:01:18.302Z,2.95
2018-06-20T15:03:46.536Z,2.70
2018-06-20T15:06:14.893Z,3.37
2018-06-20T15:08:43.114Z,2.95
2018-06-20T15:11:11.355Z,3.10
2018-06-20T15:13:39.485Z,3.33
2018-06-20T15:16:13.114Z,2.58
2018-06-20T15:18:41.301Z,2.87
2018-06-20T15:21:09.514Z,2.58
2018-06-20T15:23:37.681Z,2.87
2018-06-20T15:26:11.245Z,3.37
2018-06-20T15:28:44.822Z,2.85
2018-06-20T15:31:18.583Z,3.22
2018-06-20T15:33:52.137Z,2.80
2018-06-20T15:36:25.682Z,3.27
2018-06-20T15:38:53.955Z,3.15
2018-06-20T15:41:22.138Z,3.50
2018-06-20T15:43:50.318Z,3.42
2018-06-20T15:46:18.494Z,3.15
2018-06-20T15:48:46.717Z,3.67
2018-06-20T15:51:14.961Z,3.15
2018-06-20T15:53:43.165Z,3.98
2018-06-20T15:56:12.974Z,3.72
2018-06-20T15:58:41.221Z,3.20
2018-06-20T16:01:09.379Z,3.40
2018-06-20T16:03:37.618Z,3.62
2018-06-20T16:06:06.163Z,3.80
2018-06-20T16:08:38.578Z,4.17
2018-06-20T16:11:06.826Z,4.33
2018-06-20T16:13:35.067Z,3.75
2018-06-20T16:16:03.243Z,4.05
2018-06-20T16:18:31.413Z,4.47
2018-06-20T16:21:05.094Z,4.42
2018-06-20T16:23:38.853Z,5.15
2018-06-20T16:26:12.402Z,5.25
2018-06-20T16:28:46.107Z,5.30
2018-06-20T16:31:14.274Z,5.15
2018-06-20T16:33:42.470Z,5.00
2018-06-20T16:36:10.630Z,4.67
2018-06-20T16:38:38.829Z,4.85
2018-06-20T16:41:07.010Z,4.42
2018-06-20T16:43:35.200Z,4.55
2018-06-20T16:46:03.134Z,4.05
2018-06-20T16:48:31.313Z,3.77
2018-06-20T16:50:59.554Z,4.10
2018-06-20T16:53:27.702Z,3.75
2018-06-20T16:55:55.902Z,3.75
2018-06-20T16:58:24.082Z,3.70
2018-06-20T17:00:56.550Z,3.27
2018-06-20T17:03:24.777Z,3.50
2018-06-20T17:05:53.010Z,3.60
2018-06-20T17:08:21.179Z,3.83
2018-06-20T17:10:49.339Z,3.70
2018-06-20T17:13:23.023Z,3.17
2018-06-20T17:15:56.718Z,3.35
2018-06-20T17:18:30.162Z,3.05
2018-06-20T17:21:03.822Z,2.65
2018-06-20T17:23:37.362Z,3.05
2018-06-20T17:26:05.550Z,3.27
2018-06-20T17:28:33.701Z,3.22
2018-06-20T17:31:01.874Z,3.10
2018-06-20T17:33:30.122Z,2.72
2018-06-20T17:35:58.617Z,2.80
2018-06-20T17:38:26.777Z,2.85
2018-06-20T17:40:54.945Z,2.75
2018-06-20T17:43:23.245Z,2.83
2018-06-20T17:45:51.442Z,2.45
2018-06-20T17:48:19.682Z,2.80
2018-06-20T17:50:47.859Z,2.60
2018-06-20T17:53:16.087Z,2.25
2018-06-20T17:55:44.262Z,2.52
2018-06-20T17:58:12.499Z,1.87
2018-06-20T18:00:46.117Z,2.00
2018-06-20T18:03:14.609Z,2.33
2018-06-20T18:05:48.121Z,2.27
2018-06-20T18:08:21.814Z,2.10
2018-06-20T18:10:55.432Z,1.95
2018-06-20T18:13:28.059Z,1.92
2018-06-20T18:16:01.655Z,2.10
2018-06-20T18:18:29.886Z,2.20
2018-06-20T18:20:58.092Z,2.00
2018-06-20T18:23:26.305Z,2.55
2018-06-20T18:25:54.478Z,2.02
2018-06-20T18:28:22.674Z,2.02
2018-06-20T18:30:50.834Z,2.08
2018-06-20T18:33:19.125Z,1.98
2018-06-20T18:35:47.319Z,2.22
2018-06-20T18:38:15.486Z,2.10
2018-06-20T18:40:43.687Z,2.25
2018-06-20T18:43:11.852Z,2.33
2018-06-20T18:45:40.058Z,2.20
2018-06-20T18:48:13.653Z,5.17
2018-06-20T18:50:41.855Z,2.37
2018-06-20T18:53:10.038Z,3.52
2018-06-20T18:55:38.270Z,3.60
2018-06-20T18:58:11.861Z,3.05
2018-06-20T19:01:45.111Z,3.37
2018-06-20T19:04:18.789Z,3.40
2018-06-20T19:06:52.400Z,2.72
2018-06-20T19:09:22.860Z,2.67
2018-06-20T19:11:51.038Z,2.60
2018-06-20T19:14:19.209Z,2.70
2018-06-20T19:16:47.370Z,2.62
2018-06-20T19:19:15.540Z,2.50
2018-06-20T19:21:43.746Z,3.10
2018-06-20T19:24:11.985Z,3.20
2018-06-20T19:26:40.220Z,3.30
2018-06-20T19:29:08.375Z,3.22
2018-06-20T19:31:36.662Z,3.65
2018-06-20T19:34:04.938Z,3.35
2018-06-20T19:36:33.309Z,3.40
2018-06-20T19:39:05.628Z,3.80
2018-06-20T19:41:33.733Z,3.58
2018-06-20T19:44:07.242Z,3.80
2018-06-20T19:46:35.463Z,3.87
2018-06-20T19:49:03.647Z,4.33
2018-06-20T19:51:31.819Z,3.65
2018-06-20T19:54:00.027Z,4.30
2018-06-20T19:56:28.253Z,4.90
2018-06-20T19:58:56.445Z,4.37
2018-06-20T20:01:24.668Z,4.40
2018-06-20T20:03:52.877Z,4.95
2018-06-20T20:06:22.280Z,4.72
2018-06-20T20:08:50.541Z,4.12
2018-06-20T20:11:18.703Z,5.03
2018-06-20T20:13:46.998Z,4.70
2018-06-20T20:16:15.234Z,5.08
2018-06-20T20:18:43.442Z,4.83
2018-06-20T20:21:11.669Z,5.08
2018-06-20T20:23:39.892Z,4.90
2018-06-20T20:26:08.165Z,4.60
2018-06-20T20:28:36.342Z,4.80
2018-06-20T20:31:04.504Z,4.60
2018-06-20T20:33:32.676Z,4.97
2018-06-20T20:36:00.846Z,4.90
2018-06-20T20:38:29.029Z,4.78
2018-06-20T20:40:57.192Z,5.40
2018-06-20T20:43:25.361Z,5.35
2018-06-20T20:45:53.544Z,4.72
2018-06-20T20:48:21.735Z,4.85
2018-06-20T20:50:49.918Z,5.30
2018-06-20T20:53:18.093Z,4.92
2018-06-20T20:55:46.306Z,5.17
2018-06-20T20:58:14.481Z,5.87
2018-06-20T21:00:42.701Z,6.42
2018-06-20T21:03:10.883Z,5.87
2018-06-20T21:05:39.760Z,6.45
2018-06-20T21:08:07.921Z,6.53
2018-06-20T21:10:36.202Z,6.30
2018-06-20T21:13:04.393Z,6.65
2018-06-20T21:15:32.585Z,7.25
2018-06-20T21:18:00.854Z,8.20
2018-06-20T21:20:29.030Z,7.03
2018-06-20T21:22:57.201Z,8.10
2018-06-20T21:25:25.398Z,7.60
2018-06-20T21:27:53.784Z,7.85
2018-06-20T21:30:21.926Z,7.62
2018-06-20T21:32:50.103Z,7.92
2018-06-20T21:35:18.296Z,7.10
2018-06-20T21:37:46.464Z,7.72
2018-06-20T21:40:14.637Z,7.10
2018-06-20T21:42:42.806Z,7.83
2018-06-20T21:45:10.972Z,7.42
2018-06-20T21:47:39.156Z,7.55
2018-06-20T21:50:07.342Z,7.67
2018-06-20T21:52:35.526Z,7.45
2018-06-20T21:55:03.731Z,8.70
2018-06-20T21:57:31.937Z,8.15
2018-06-20T22:00:00.120Z,8.08
2018-06-20T22:02:28.281Z,7.50
2018-06-20T22:04:56.457Z,8.53
2018-06-20T22:07:24.397Z,9.20
2018-06-20T22:09:52.557Z,8.53
2018-06-20T22:12:20.773Z,8.33
2018-06-20T22:14:48.996Z,8.95
2018-06-20T22:17:17.234Z,8.88
2018-06-20T22:19:45.432Z,9.40
2018-06-20T22:22:13.685Z,10.10
2018-06-20T22:24:41.870Z,9.50
2018-06-20T22:27:10.050Z,9.75
2018-06-20T22:29:38.229Z,9.00
2018-06-20T22:32:06.425Z,9.78
2018-06-20T22:34:34.614Z,8.08
2018-06-20T22:37:02.802Z,9.30
2018-06-20T22:39:30.957Z,8.45
2018-06-20T22:41:59.138Z,8.63
2018-06-20T22:44:27.324Z,9.13
2018-06-20T22:46:55.793Z,9.83
2018-06-20T22:49:24.199Z,8.43
2018-06-20T22:51:52.454Z,9.18
2018-06-20T22:54:20.687Z,10.45
2018-06-20T22:56:48.858Z,9.13
2018-06-20T22:59:17.064Z,9.90
2018-06-20T23:01:45.235Z,9.33
2018-06-20T23:04:13.414Z,10.23
2018-06-20T23:06:41.641Z,10.50
2018-06-20T23:09:10.674Z,9.95
2018-06-20T23:11:44.074Z,9.90
2018-06-20T23:14:12.397Z,10.05
2018-06-20T23:16:40.776Z,9.95
2018-06-20T23:19:09.514Z,11.03
2018-06-20T23:21:37.718Z,10.72
2018-06-20T23:24:05.905Z,10.65
2018-06-20T23:26:34.125Z,11.78
2018-06-20T23:29:02.322Z,10.95
2018-06-20T23:31:30.514Z,9.90
2018-06-20T23:33:58.732Z,10.28
2018-06-20T23:36:26.893Z,10.98
2018-06-20T23:38:55.065Z,10.55
2018-06-20T23:41:23.236Z,10.28
2018-06-20T23:43:51.407Z,10.43
2018-06-20T23:46:19.581Z,9.73
2018-06-20T23:48:47.809Z,9.65
2018-06-20T23:51:16.014Z,9.85
2018-06-20T23:53:44.238Z,9.63
2018-06-20T23:56:12.490Z,9.28
2018-06-20T23:58:40.734Z,8.93
